sensor_id;sensor_type;location;lat;lon;timestamp;pressure;altitude;pressure_sealevel;temperature
15144;BMP180;7672;50.834;6.286;2022-12-11T00:00:23;99258.22;;;5.82
15144;BMP180;7672;50.834;6.286;2022-12-11T00:02:50;99254.91;;;5.82
15144;BMP180;7672;50.834;6.286;2022-12-11T00:05:17;99249.06;;;5.81
15144;BMP180;7672;50.834;6.286;2022-12-11T00:07:44;99244.88;;;5.83
15144;BMP180;7672;50.834;6.286;2022-12-11T00:10:11;99242.34;;;5.82
15144;BMP180;7672;50.834;6.286;2022-12-11T00:12:37;99249.06;;;5.81
15144;BMP180;7672;50.834;6.286;2022-12-11T00:15:05;99243.16;;;5.81
15144;BMP180;7672;50.834;6.286;2022-12-11T00:17:31;99244.84;;;5.80
15144;BMP180;7672;50.834;6.286;2022-12-11T00:19:58;99248.19;;;5.81
15144;BMP180;7672;50.834;6.286;2022-12-11T00:22:25;99242.34;;;5.82
15144;BMP180;7672;50.834;6.286;2022-12-11T00:24:52;99250.72;;;5.82
15144;BMP180;7672;50.834;6.286;2022-12-11T00:27:20;99250.72;;;5.82
15144;BMP180;7672;50.834;6.286;2022-12-11T00:29:46;99243.16;;;5.81
15144;BMP180;7672;50.834;6.286;2022-12-11T00:32:13;99243.16;;;5.79
15144;BMP180;7672;50.834;6.286;2022-12-11T00:34:40;99243.97;;;5.78
15144;BMP180;7672;50.834;6.286;2022-12-11T00:37:07;99234.72;;;5.76
15144;BMP180;7672;50.834;6.286;2022-12-11T00:39:34;99247.28;;;5.76
15144;BMP180;7672;50.834;6.286;2022-12-11T00:42:00;99243.94;;;5.75
15144;BMP180;7672;50.834;6.286;2022-12-11T00:44:27;99243.88;;;5.74
15144;BMP180;7672;50.834;6.286;2022-12-11T00:46:54;99245.53;;;5.73
15144;BMP180;7672;50.834;6.286;2022-12-11T00:49:21;99250.56;;;5.75
15144;BMP180;7672;50.834;6.286;2022-12-11T00:51:47;99241.38;;;5.74
15144;BMP180;7672;50.834;6.286;2022-12-11T00:54:14;99248.94;;;5.75
15144;BMP180;7672;50.834;6.286;2022-12-11T00:56:42;99256.47;;;5.77
15144;BMP180;7672;50.834;6.286;2022-12-11T00:59:09;99247.28;;;5.76
15144;BMP180;7672;50.834;6.286;2022-12-11T01:01:35;99246.44;;;5.77
15144;BMP180;7672;50.834;6.286;2022-12-11T01:04:02;99254.00;;;5.78
15144;BMP180;7672;50.834;6.286;2022-12-11T01:06:29;99245.66;;;5.79
15144;BMP180;7672;50.834;6.286;2022-12-11T01:08:56;99245.66;;;5.79
15144;BMP180;7672;50.834;6.286;2022-12-11T01:11:42;99247.28;;;5.76
15144;BMP180;7672;50.834;6.286;2022-12-11T01:14:10;99250.66;;;5.78
15144;BMP180;7672;50.834;6.286;2022-12-11T01:16:37;99248.97;;;5.77
15144;BMP180;7672;50.834;6.286;2022-12-11T01:19:05;99250.63;;;5.76
15144;BMP180;7672;50.834;6.286;2022-12-11T01:21:31;99248.97;;;5.78
15144;BMP180;7672;50.834;6.286;2022-12-11T01:23:58;99255.69;;;5.79
15144;BMP180;7672;50.834;6.286;2022-12-11T01:26:28;99255.66;;;5.78
15144;BMP180;7672;50.834;6.286;2022-12-11T01:28:56;99258.16;;;5.76
15144;BMP180;7672;50.834;6.286;2022-12-11T01:31:23;99252.31;;;5.77
15144;BMP180;7672;50.834;6.286;2022-12-11T01:33:53;99247.28;;;5.76
15144;BMP180;7672;50.834;6.286;2022-12-11T01:36:21;99244.75;;;5.76
15144;BMP180;7672;50.834;6.286;2022-12-11T01:38:48;99249.72;;;5.74
15144;BMP180;7672;50.834;6.286;2022-12-11T01:41:17;99233.00;;;5.75
15144;BMP180;7672;50.834;6.286;2022-12-11T01:46:50;99235.47;;;5.70
15144;BMP180;7672;50.834;6.286;2022-12-11T01:49:20;99233.75;;;5.68
15144;BMP180;7672;50.834;6.286;2022-12-11T01:52:06;99234.56;;;5.67
15144;BMP180;7672;50.834;6.286;2022-12-11T01:54:35;99233.72;;;5.65
15144;BMP180;7672;50.834;6.286;2022-12-11T01:57:06;99230.34;;;5.64
15144;BMP180;7672;50.834;6.286;2022-12-11T01:59:38;99227.03;;;5.65
15144;BMP180;7672;50.834;6.286;2022-12-11T02:02:11;99226.22;;;5.68
15144;BMP180;7672;50.834;6.286;2022-12-11T02:04:42;99221.19;;;5.66
15144;BMP180;7672;50.834;6.286;2022-12-11T02:07:09;99215.38;;;5.67
15144;BMP180;7672;50.834;6.286;2022-12-11T02:09:40;99228.75;;;5.69
15144;BMP180;7672;50.834;6.286;2022-12-11T02:12:41;99227.06;;;5.68
15144;BMP180;7672;50.834;6.286;2022-12-11T02:15:39;99224.50;;;5.64
15144;BMP180;7672;50.834;6.286;2022-12-11T02:18:45;99242.03;;;5.62
15144;BMP180;7672;50.834;6.286;2022-12-11T02:21:27;99226.09;;;5.60
15144;BMP180;7672;50.834;6.286;2022-12-11T02:29:36;99226.13;;;5.62
15144;BMP180;7672;50.834;6.286;2022-12-11T02:32:13;99224.50;;;5.64
15144;BMP180;7672;50.834;6.286;2022-12-11T02:37:31;99221.19;;;5.66
15144;BMP180;7672;50.834;6.286;2022-12-11T02:40:04;99217.88;;;5.67
15144;BMP180;7672;50.834;6.286;2022-12-11T02:42:33;99222.91;;;5.70
15144;BMP180;7672;50.834;6.286;2022-12-11T02:45:04;99214.50;;;5.68
15144;BMP180;7672;50.834;6.286;2022-12-11T02:47:32;99213.78;;;5.72
15144;BMP180;7672;50.834;6.286;2022-12-11T02:50:02;99206.25;;;5.72
15144;BMP180;7672;50.834;6.286;2022-12-11T02:52:33;99215.44;;;5.73
15144;BMP180;7672;50.834;6.286;2022-12-11T02:55:02;99217.13;;;5.74
15144;BMP180;7672;50.834;6.286;2022-12-11T03:00:13;99212.91;;;5.72
15144;BMP180;7672;50.834;6.286;2022-12-11T03:02:42;99202.88;;;5.72
15144;BMP180;7672;50.834;6.286;2022-12-11T03:05:11;99206.25;;;5.72
15144;BMP180;7672;50.834;6.286;2022-12-11T03:07:42;99208.78;;;5.74
15144;BMP180;7672;50.834;6.286;2022-12-11T03:10:13;99204.56;;;5.73
15144;BMP180;7672;50.834;6.286;2022-12-11T03:12:44;99197.06;;;5.74
15144;BMP180;7672;50.834;6.286;2022-12-11T03:15:25;99196.22;;;5.72
15144;BMP180;7672;50.834;6.286;2022-12-11T03:18:09;99197.88;;;5.73
15144;BMP180;7672;50.834;6.286;2022-12-11T03:20:59;99189.50;;;5.71
15144;BMP180;7672;50.834;6.286;2022-12-11T03:23:43;99188.63;;;5.69
15144;BMP180;7672;50.834;6.286;2022-12-11T03:26:16;99191.16;;;5.69
15144;BMP180;7672;50.834;6.286;2022-12-11T03:28:57;99191.97;;;5.68
15144;BMP180;7672;50.834;6.286;2022-12-11T03:31:41;99192.81;;;5.69
15144;BMP180;7672;50.834;6.286;2022-12-11T03:34:23;99188.63;;;5.68
15144;BMP180;7672;50.834;6.286;2022-12-11T03:36:54;99187.78;;;5.67
15144;BMP180;7672;50.834;6.286;2022-12-11T03:39:29;99191.16;;;5.69
15144;BMP180;7672;50.834;6.286;2022-12-11T03:42:02;99199.53;;;5.70
15144;BMP180;7672;50.834;6.286;2022-12-11T03:44:32;99194.50;;;5.70
15144;BMP180;7672;50.834;6.286;2022-12-11T03:47:02;99201.25;;;5.74
15144;BMP180;7672;50.834;6.286;2022-12-11T03:49:38;99199.56;;;5.74
15144;BMP180;7672;50.834;6.286;2022-12-11T03:52:08;99197.13;;;5.76
15144;BMP180;7672;50.834;6.286;2022-12-11T03:54:37;99192.88;;;5.73
15144;BMP180;7672;50.834;6.286;2022-12-11T03:57:06;99197.97;;;5.76
15144;BMP180;7672;50.834;6.286;2022-12-11T03:59:34;99196.28;;;5.75
15144;BMP180;7672;50.834;6.286;2022-12-11T04:02:01;99188.78;;;5.75
15144;BMP180;7672;50.834;6.286;2022-12-11T04:04:40;99192.09;;;5.76
15144;BMP180;7672;50.834;6.286;2022-12-11T04:07:08;99185.44;;;5.76
15144;BMP180;7672;50.834;6.286;2022-12-11T04:09:35;99190.47;;;5.78
15144;BMP180;7672;50.834;6.286;2022-12-11T04:12:02;99186.31;;;5.80
15144;BMP180;7672;50.834;6.286;2022-12-11T04:14:29;99189.69;;;5.80
15144;BMP180;7672;50.834;6.286;2022-12-11T04:17:14;99189.66;;;5.79
15144;BMP180;7672;50.834;6.286;2022-12-11T04:20:02;99199.72;;;5.80
15144;BMP180;7672;50.834;6.286;2022-12-11T04:22:48;99200.50;;;5.78
15144;BMP180;7672;50.834;6.286;2022-12-11T04:25:33;99198.00;;;5.78
15144;BMP180;7672;50.834;6.286;2022-12-11T04:27:59;99192.97;;;5.78
15144;BMP180;7672;50.834;6.286;2022-12-11T04:30:26;99193.84;;;5.80
15144;BMP180;7672;50.834;6.286;2022-12-11T04:33:00;99189.69;;;5.80
15144;BMP180;7672;50.834;6.286;2022-12-11T04:35:27;99184.66;;;5.79
15144;BMP180;7672;50.834;6.286;2022-12-11T04:37:54;99184.69;;;5.82
15144;BMP180;7672;50.834;6.286;2022-12-11T04:40:21;99180.50;;;5.82
15144;BMP180;7672;50.834;6.286;2022-12-11T04:42:48;99183.00;;;5.82
15144;BMP180;7672;50.834;6.286;2022-12-11T04:45:15;99176.34;;;5.83
15144;BMP180;7672;50.834;6.286;2022-12-11T04:47:42;99174.66;;;5.83
15144;BMP180;7672;50.834;6.286;2022-12-11T04:50:11;99168.81;;;5.83
15144;BMP180;7672;50.834;6.286;2022-12-11T04:52:38;99173.03;;;5.84
15144;BMP180;7672;50.834;6.286;2022-12-11T04:55:07;99175.56;;;5.85
15144;BMP180;7672;50.834;6.286;2022-12-11T04:57:34;99161.31;;;5.83
15144;BMP180;7672;50.834;6.286;2022-12-11T05:00:05;99169.66;;;5.85
15144;BMP180;7672;50.834;6.286;2022-12-11T05:02:37;99166.34;;;5.86
15144;BMP180;7672;50.834;6.286;2022-12-11T05:05:06;99153.81;;;5.87
15144;BMP180;7672;50.834;6.286;2022-12-11T05:07:36;99144.66;;;5.88
15144;BMP180;7672;50.834;6.286;2022-12-11T05:10:05;99152.19;;;5.89
15144;BMP180;7672;50.834;6.286;2022-12-11T05:12:32;99146.38;;;5.90
15144;BMP180;7672;50.834;6.286;2022-12-11T05:14:59;99143.00;;;5.91
15144;BMP180;7672;50.834;6.286;2022-12-11T05:17:26;99148.88;;;5.90
15144;BMP180;7672;50.834;6.286;2022-12-11T05:19:52;99143.00;;;5.91
15144;BMP180;7672;50.834;6.286;2022-12-11T05:22:19;99153.09;;;5.93
15144;BMP180;7672;50.834;6.286;2022-12-11T05:24:46;99163.13;;;5.94
15144;BMP180;7672;50.834;6.286;2022-12-11T05:27:15;99143.06;;;5.93
15144;BMP180;7672;50.834;6.286;2022-12-11T05:29:42;99156.44;;;5.95
15144;BMP180;7672;50.834;6.286;2022-12-11T05:32:08;99158.97;;;5.96
15144;BMP180;7672;50.834;6.286;2022-12-11T05:34:35;99154.81;;;5.97
15144;BMP180;7672;50.834;6.286;2022-12-11T05:37:02;99153.13;;;5.96
15144;BMP180;7672;50.834;6.286;2022-12-11T05:39:29;99149.78;;;5.97
15144;BMP180;7672;50.834;6.286;2022-12-11T05:41:56;99152.31;;;5.98
15144;BMP180;7672;50.834;6.286;2022-12-11T05:44:23;99158.16;;;5.97
15144;BMP180;7672;50.834;6.286;2022-12-11T05:46:50;99142.28;;;5.97
15144;BMP180;7672;50.834;6.286;2022-12-11T05:49:17;99148.94;;;5.96
15144;BMP180;7672;50.834;6.286;2022-12-11T05:51:46;99151.44;;;5.96
15144;BMP180;7672;50.834;6.286;2022-12-11T05:54:13;99149.78;;;5.95
15144;BMP180;7672;50.834;6.286;2022-12-11T05:56:39;99146.38;;;5.92
15144;BMP180;7672;50.834;6.286;2022-12-11T05:59:07;99156.41;;;5.90
15144;BMP180;7672;50.834;6.286;2022-12-11T06:01:38;99147.97;;;5.87
15144;BMP180;7672;50.834;6.286;2022-12-11T06:04:06;99156.28;;;5.83
15144;BMP180;7672;50.834;6.286;2022-12-11T06:06:34;99153.72;;;5.80
15144;BMP180;7672;50.834;6.286;2022-12-11T06:09:04;99164.59;;;5.79
15144;BMP180;7672;50.834;6.286;2022-12-11T06:11:32;99152.88;;;5.78
15144;BMP180;7672;50.834;6.286;2022-12-11T06:14:02;99153.66;;;5.75
15144;BMP180;7672;50.834;6.286;2022-12-11T06:16:29;99144.41;;;5.74
15144;BMP180;7672;50.834;6.286;2022-12-11T06:18:57;99141.38;;;5.95
15144;BMP180;7672;50.834;6.286;2022-12-11T06:21:30;99145.72;;;6.06
15144;BMP180;7672;50.834;6.286;2022-12-11T06:24:01;99142.25;;;5.95
15144;BMP180;7672;50.834;6.286;2022-12-11T06:26:29;99142.13;;;5.86
15144;BMP180;7672;50.834;6.286;2022-12-11T06:28:57;99142.03;;;5.80
15144;BMP180;7672;50.834;6.286;2022-12-11T06:31:24;99142.75;;;5.75
15144;BMP180;7672;50.834;6.286;2022-12-11T06:33:54;99151.09;;;5.72
15144;BMP180;7672;50.834;6.286;2022-12-11T06:36:23;99154.34;;;5.67
15144;BMP180;7672;50.834;6.286;2022-12-11T06:38:51;99156.00;;;5.65
15144;BMP180;7672;50.834;6.286;2022-12-11T06:41:18;99153.41;;;5.60
15144;BMP180;7672;50.834;6.286;2022-12-11T06:43:45;99149.19;;;5.59
15144;BMP180;7672;50.834;6.286;2022-12-11T06:46:15;99151.69;;;5.58
15144;BMP180;7672;50.834;6.286;2022-12-11T06:48:44;99147.50;;;5.57
15144;BMP180;7672;50.834;6.286;2022-12-11T06:51:20;99157.53;;;5.57
15144;BMP180;7672;50.834;6.286;2022-12-11T06:53:55;99157.50;;;5.55
15144;BMP180;7672;50.834;6.286;2022-12-11T06:56:23;99163.34;;;5.54
15144;BMP180;7672;50.834;6.286;2022-12-11T06:58:50;99164.19;;;5.53
15144;BMP180;7672;50.834;6.286;2022-12-11T07:01:25;99170.03;;;5.54
15144;BMP180;7672;50.834;6.286;2022-12-11T07:03:55;99161.59;;;5.49
15144;BMP180;7672;50.834;6.286;2022-12-11T07:06:24;99158.25;;;5.49
15144;BMP180;7672;50.834;6.286;2022-12-11T07:08:51;99157.38;;;5.47
15144;BMP180;7672;50.834;6.286;2022-12-11T07:11:20;99161.56;;;5.48
15144;BMP180;7672;50.834;6.286;2022-12-11T07:13:47;99154.03;;;5.46
15144;BMP180;7672;50.834;6.286;2022-12-11T07:16:16;99149.03;;;5.46
15144;BMP180;7672;50.834;6.286;2022-12-11T07:18:47;99148.19;;;5.47
15144;BMP180;7672;50.834;6.286;2022-12-11T07:21:15;99155.72;;;5.47
15144;BMP180;7672;50.834;6.286;2022-12-11T07:23:42;99149.84;;;5.47
15144;BMP180;7672;50.834;6.286;2022-12-11T07:26:15;99159.88;;;5.47
15144;BMP180;7672;50.834;6.286;2022-12-11T07:28:43;99154.84;;;5.47
15144;BMP180;7672;50.834;6.286;2022-12-11T07:31:17;99154.03;;;5.46
15144;BMP180;7672;50.834;6.286;2022-12-11T07:33:45;99154.03;;;5.48
15144;BMP180;7672;50.834;6.286;2022-12-11T07:36:14;99149.06;;;5.49
15144;BMP180;7672;50.834;6.286;2022-12-11T07:38:41;99156.59;;;5.50
15144;BMP180;7672;50.834;6.286;2022-12-11T07:41:12;99155.78;;;5.53
15144;BMP180;7672;50.834;6.286;2022-12-11T07:43:40;99151.66;;;5.53
15144;BMP180;7672;50.834;6.286;2022-12-11T07:46:12;99154.16;;;5.55
15144;BMP180;7672;50.834;6.286;2022-12-11T07:48:42;99152.50;;;5.55
15144;BMP180;7672;50.834;6.286;2022-12-11T07:51:22;99155.84;;;5.56
15144;BMP180;7672;50.834;6.286;2022-12-11T07:53:55;99160.03;;;5.57
15144;BMP180;7672;50.834;6.286;2022-12-11T07:56:22;99153.38;;;5.57
15144;BMP180;7672;50.834;6.286;2022-12-11T07:58:49;99155.91;;;5.59
15144;BMP180;7672;50.834;6.286;2022-12-11T08:01:24;99152.56;;;5.60
15144;BMP180;7672;50.834;6.286;2022-12-11T08:03:53;99158.41;;;5.60
15144;BMP180;7672;50.834;6.286;2022-12-11T08:06:28;99165.09;;;5.60
15144;BMP180;7672;50.834;6.286;2022-12-11T08:08:57;99150.06;;;5.60
15144;BMP180;7672;50.834;6.286;2022-12-11T08:11:25;99147.59;;;5.63
15144;BMP180;7672;50.834;6.286;2022-12-11T08:13:54;99155.94;;;5.63
15144;BMP180;7672;50.834;6.286;2022-12-11T08:16:21;99151.81;;;5.65
15144;BMP180;7672;50.834;6.286;2022-12-11T08:18:48;99151.03;;;5.69
15144;BMP180;7672;50.834;6.286;2022-12-11T08:21:26;99151.09;;;5.74
15144;BMP180;7672;50.834;6.286;2022-12-11T08:23:54;99147.75;;;5.75
15144;BMP180;7672;50.834;6.286;2022-12-11T08:26:26;99157.91;;;5.81
15144;BMP180;7672;50.834;6.286;2022-12-11T08:28:54;99142.88;;;5.82
15144;BMP180;7672;50.834;6.286;2022-12-11T08:31:23;99153.81;;;5.87
15144;BMP180;7672;50.834;6.286;2022-12-11T08:33:51;99153.00;;;5.88
15144;BMP180;7672;50.834;6.286;2022-12-11T08:36:20;99150.56;;;5.93
15144;BMP180;7672;50.834;6.286;2022-12-11T08:38:48;99153.94;;;5.95
15144;BMP180;7672;50.834;6.286;2022-12-11T08:41:22;99160.72;;;6.00
15144;BMP180;7672;50.834;6.286;2022-12-11T08:43:50;99155.72;;;6.02
15144;BMP180;7672;50.834;6.286;2022-12-11T08:46:24;99163.28;;;6.05
15144;BMP180;7672;50.834;6.286;2022-12-11T08:48:52;99159.97;;;6.07
15144;BMP180;7672;50.834;6.286;2022-12-11T08:51:23;99151.63;;;6.08
15144;BMP180;7672;50.834;6.286;2022-12-11T08:53:54;99148.31;;;6.11
15144;BMP180;7672;50.834;6.286;2022-12-11T08:56:21;99145.81;;;6.11
15144;BMP180;7672;50.834;6.286;2022-12-11T08:58:50;99150.84;;;6.12
15144;BMP180;7672;50.834;6.286;2022-12-11T09:01:24;99154.22;;;6.14
15144;BMP180;7672;50.834;6.286;2022-12-11T09:03:54;99153.38;;;6.15
15144;BMP180;7672;50.834;6.286;2022-12-11T09:06:24;99157.59;;;6.19
15144;BMP180;7672;50.834;6.286;2022-12-11T09:08:52;99156.78;;;6.21
15144;BMP180;7672;50.834;6.286;2022-12-11T09:11:24;99158.50;;;6.24
15144;BMP180;7672;50.834;6.286;2022-12-11T09:13:52;99151.84;;;6.26
15144;BMP180;7672;50.834;6.286;2022-12-11T09:16:22;99146.00;;;6.27
15144;BMP180;7672;50.834;6.286;2022-12-11T09:18:52;99149.34;;;6.27
15144;BMP180;7672;50.834;6.286;2022-12-11T09:21:23;99143.53;;;6.30
15144;BMP180;7672;50.834;6.286;2022-12-11T09:23:56;99146.03;;;6.31
15144;BMP180;7672;50.834;6.286;2022-12-11T09:26:24;99144.41;;;6.32
15144;BMP180;7672;50.834;6.286;2022-12-11T09:28:52;99148.63;;;6.36
15144;BMP180;7672;50.834;6.286;2022-12-11T09:31:28;99158.69;;;6.39
15144;BMP180;7672;50.834;6.286;2022-12-11T09:34:02;99156.19;;;6.40
15144;BMP180;7672;50.834;6.286;2022-12-11T09:36:30;99154.56;;;6.42
15144;BMP180;7672;50.834;6.286;2022-12-11T09:39:02;99146.22;;;6.45
15144;BMP180;7672;50.834;6.286;2022-12-11T09:41:39;99153.75;;;6.46
15144;BMP180;7672;50.834;6.286;2022-12-11T09:44:31;99151.28;;;6.48
15144;BMP180;7672;50.834;6.286;2022-12-11T09:47:00;99150.47;;;6.50
15144;BMP180;7672;50.834;6.286;2022-12-11T09:49:39;99159.69;;;6.53
15144;BMP180;7672;50.834;6.286;2022-12-11T09:52:31;99154.69;;;6.56
15144;BMP180;7672;50.834;6.286;2022-12-11T09:55:12;99147.22;;;6.57
15144;BMP180;7672;50.834;6.286;2022-12-11T10:01:09;99135.56;;;6.64
15144;BMP180;7672;50.834;6.286;2022-12-11T10:03:56;99136.41;;;6.66
15144;BMP180;7672;50.834;6.286;2022-12-11T10:06:59;99141.47;;;6.69
15144;BMP180;7672;50.834;6.286;2022-12-11T10:09:38;99135.59;;;6.68
15144;BMP180;7672;50.834;6.286;2022-12-11T10:12:18;99139.81;;;6.72
15144;BMP180;7672;50.834;6.286;2022-12-11T10:17:45;99134.06;;;6.83
15144;BMP180;7672;50.834;6.286;2022-12-11T10:20:30;99141.75;;;6.98
15144;BMP180;7672;50.834;6.286;2022-12-11T10:23:00;99138.50;;;7.10
15144;BMP180;7672;50.834;6.286;2022-12-11T10:25:36;99136.13;;;7.25
15144;BMP180;7672;50.834;6.286;2022-12-11T10:28:17;99134.59;;;7.40
15144;BMP180;7672;50.834;6.286;2022-12-11T10:31:18;99129.69;;;7.56
15144;BMP180;7672;50.834;6.286;2022-12-11T10:34:00;99117.97;;;7.64
15144;BMP180;7672;50.834;6.286;2022-12-11T10:36:33;99123.94;;;7.74
15144;BMP180;7672;50.834;6.286;2022-12-11T10:39:01;99113.91;;;7.80
15144;BMP180;7672;50.834;6.286;2022-12-11T10:41:41;99115.59;;;7.84
15144;BMP180;7672;50.834;6.286;2022-12-11T10:44:28;99118.13;;;7.88
15144;BMP180;7672;50.834;6.286;2022-12-11T10:47:14;99120.69;;;7.93
15144;BMP180;7672;50.834;6.286;2022-12-11T10:49:56;99113.16;;;7.97
15144;BMP180;7672;50.834;6.286;2022-12-11T10:52:37;99103.13;;;8.01
15144;BMP180;7672;50.834;6.286;2022-12-11T10:55:21;99101.44;;;8.03
15144;BMP180;7672;50.834;6.286;2022-12-11T10:57:59;99104.00;;;8.08
15144;BMP180;7672;50.834;6.286;2022-12-11T11:00:37;99104.03;;;8.12
15144;BMP180;7672;50.834;6.286;2022-12-11T11:03:19;99099.88;;;8.20
15144;BMP180;7672;50.834;6.286;2022-12-11T11:05:47;99094.06;;;8.32
15144;BMP180;7672;50.834;6.286;2022-12-11T11:08:20;99091.56;;;8.42
15144;BMP180;7672;50.834;6.286;2022-12-11T11:10:51;99082.34;;;8.58
15144;BMP180;7672;50.834;6.286;2022-12-11T11:13:22;99079.03;;;8.73
15144;BMP180;7672;50.834;6.286;2022-12-11T11:16:11;99077.38;;;8.92
15144;BMP180;7672;50.834;6.286;2022-12-11T11:18:40;99073.19;;;9.07
15144;BMP180;7672;50.834;6.286;2022-12-11T11:21:21;99066.47;;;9.25
15144;BMP180;7672;50.834;6.286;2022-12-11T11:23:51;99068.97;;;9.55
15144;BMP180;7672;50.834;6.286;2022-12-11T11:26:20;99066.34;;;9.97
15144;BMP180;7672;50.834;6.286;2022-12-11T11:29:29;99056.81;;;10.54
15144;BMP180;7672;50.834;6.286;2022-12-11T11:32:15;99055.56;;;11.10
15144;BMP180;7672;50.834;6.286;2022-12-11T11:34:42;99056.84;;;11.59
15144;BMP180;7672;50.834;6.286;2022-12-11T11:37:30;99052.16;;;11.99
15144;BMP180;7672;50.834;6.286;2022-12-11T11:40:10;99035.75;;;12.27
15144;BMP180;7672;50.834;6.286;2022-12-11T11:42:45;99038.88;;;12.45
15144;BMP180;7672;50.834;6.286;2022-12-11T11:45:51;99037.09;;;12.53
15144;BMP180;7672;50.834;6.286;2022-12-11T11:48:54;99025.41;;;12.40
15144;BMP180;7672;50.834;6.286;2022-12-11T11:51:32;99029.97;;;12.16
15144;BMP180;7672;50.834;6.286;2022-12-11T11:54:18;99029.50;;;11.87
15144;BMP180;7672;50.834;6.286;2022-12-11T11:56:50;99026.50;;;11.54
15144;BMP180;7672;50.834;6.286;2022-12-11T11:59:33;99025.09;;;11.20
15144;BMP180;7672;50.834;6.286;2022-12-11T12:02:13;99022.00;;;10.93
15144;BMP180;7672;50.834;6.286;2022-12-11T12:04:41;99017.13;;;10.65
15144;BMP180;7672;50.834;6.286;2022-12-11T12:07:36;99025.72;;;10.37
15144;BMP180;7672;50.834;6.286;2022-12-11T12:14:08;99023.47;;;9.70
15144;BMP180;7672;50.834;6.286;2022-12-11T12:17:15;99026.91;;;9.50
15144;BMP180;7672;50.834;6.286;2022-12-11T12:23:24;99018.56;;;9.20
15144;BMP180;7672;50.834;6.286;2022-12-11T12:26:43;99018.56;;;9.03
15144;BMP180;7672;50.834;6.286;2022-12-11T12:29:26;99015.25;;;8.91
15144;BMP180;7672;50.834;6.286;2022-12-11T12:32:29;99004.31;;;8.80
15144;BMP180;7672;50.834;6.286;2022-12-11T12:41:37;99011.03;;;8.54
15144;BMP180;7672;50.834;6.286;2022-12-11T12:47:02;99013.50;;;8.45
15144;BMP180;7672;50.834;6.286;2022-12-11T12:49:47;99013.50;;;8.42
15144;BMP180;7672;50.834;6.286;2022-12-11T12:52:30;99014.34;;;8.38
15144;BMP180;7672;50.834;6.286;2022-12-11T12:55:04;99011.84;;;8.35
15144;BMP180;7672;50.834;6.286;2022-12-11T12:57:59;99009.28;;;8.28
15144;BMP180;7672;50.834;6.286;2022-12-11T13:00:40;99018.50;;;8.21
15144;BMP180;7672;50.834;6.286;2022-12-11T13:08:35;99011.72;;;8.02
15144;BMP180;7672;50.834;6.286;2022-12-11T13:11:07;99016.75;;;8.01
15144;BMP180;7672;50.834;6.286;2022-12-11T13:13:43;99017.56;;;7.98
15144;BMP180;7672;50.834;6.286;2022-12-11T13:18:46;99032.66;;;8.01
15144;BMP180;7672;50.834;6.286;2022-12-11T13:21:30;99024.28;;;8.01
15144;BMP180;7672;50.834;6.286;2022-12-11T13:24:28;99025.13;;;7.98
15144;BMP180;7672;50.834;6.286;2022-12-11T13:27:07;99028.44;;;7.95
15144;BMP180;7672;50.834;6.286;2022-12-11T13:29:40;99024.22;;;7.92
15144;BMP180;7672;50.834;6.286;2022-12-11T13:34:54;99021.69;;;7.82
15144;BMP180;7672;50.834;6.286;2022-12-11T13:37:37;99021.63;;;7.76
15144;BMP180;7672;50.834;6.286;2022-12-11T13:40:20;99035.06;;;7.75
15144;BMP180;7672;50.834;6.286;2022-12-11T13:42:56;99028.34;;;7.71
15144;BMP180;7672;50.834;6.286;2022-12-11T13:45:43;99036.72;;;7.71
15144;BMP180;7672;50.834;6.286;2022-12-11T13:51:06;99039.19;;;7.65
15144;BMP180;7672;50.834;6.286;2022-12-11T13:53:33;99034.16;;;7.67
15144;BMP180;7672;50.834;6.286;2022-12-11T13:56:06;99040.06;;;7.69
15144;BMP180;7672;50.834;6.286;2022-12-11T13:58:37;99040.06;;;7.70
15144;BMP180;7672;50.834;6.286;2022-12-11T14:01:09;99034.22;;;7.73
15144;BMP180;7672;50.834;6.286;2022-12-11T14:03:40;99040.94;;;7.77
15144;BMP180;7672;50.834;6.286;2022-12-11T14:06:10;99036.75;;;7.79
15144;BMP180;7672;50.834;6.286;2022-12-11T14:08:50;99040.97;;;7.81
15144;BMP180;7672;50.834;6.286;2022-12-11T14:11:25;99041.78;;;7.82
15144;BMP180;7672;50.834;6.286;2022-12-11T14:13:59;99037.59;;;7.81
15144;BMP180;7672;50.834;6.286;2022-12-11T14:16:28;99045.13;;;7.81
15144;BMP180;7672;50.834;6.286;2022-12-11T14:19:04;99045.13;;;7.79
15144;BMP180;7672;50.834;6.286;2022-12-11T14:21:32;99047.66;;;7.79
15144;BMP180;7672;50.834;6.286;2022-12-11T14:24:02;99047.66;;;7.79
15144;BMP180;7672;50.834;6.286;2022-12-11T14:26:33;99055.19;;;7.78
15144;BMP180;7672;50.834;6.286;2022-12-11T14:29:00;99050.16;;;7.76
15144;BMP180;7672;50.834;6.286;2022-12-11T14:31:39;99055.19;;;7.75
15144;BMP180;7672;50.834;6.286;2022-12-11T14:34:14;99062.69;;;7.70
15144;BMP180;7672;50.834;6.286;2022-12-11T14:36:44;99053.47;;;7.66
15144;BMP180;7672;50.834;6.286;2022-12-11T14:39:30;99058.50;;;7.65
15144;BMP180;7672;50.834;6.286;2022-12-11T14:42:12;99052.59;;;7.60
15144;BMP180;7672;50.834;6.286;2022-12-11T14:47:20;99049.22;;;7.52
15144;BMP180;7672;50.834;6.286;2022-12-11T14:50:01;99050.84;;;7.47
15144;BMP180;7672;50.834;6.286;2022-12-11T14:52:56;99052.50;;;7.42
15144;BMP180;7672;50.834;6.286;2022-12-11T14:55:32;99044.91;;;7.36
15144;BMP180;7672;50.834;6.286;2022-12-11T14:58:14;99044.88;;;7.33
15144;BMP180;7672;50.834;6.286;2022-12-11T15:00:42;99045.72;;;7.29
15144;BMP180;7672;50.834;6.286;2022-12-11T15:08:20;99046.44;;;7.16
15144;BMP180;7672;50.834;6.286;2022-12-11T15:11:11;99054.78;;;7.09
15144;BMP180;7672;50.834;6.286;2022-12-11T15:14:10;99063.09;;;7.04
15144;BMP180;7672;50.834;6.286;2022-12-11T15:16:39;99062.25;;;7.00
15144;BMP180;7672;50.834;6.286;2022-12-11T15:19:19;99061.34;;;6.95
15144;BMP180;7672;50.834;6.286;2022-12-11T15:21:49;99066.38;;;6.94
15144;BMP180;7672;50.834;6.286;2022-12-11T15:24:44;99067.19;;;6.93
15144;BMP180;7672;50.834;6.286;2022-12-11T15:27:35;99065.47;;;6.87
15144;BMP180;7672;50.834;6.286;2022-12-11T15:32:42;99070.47;;;6.84
15144;BMP180;7672;50.834;6.286;2022-12-11T15:35:27;99068.78;;;6.83
15144;BMP180;7672;50.834;6.286;2022-12-11T15:37:58;99065.44;;;6.81
15144;BMP180;7672;50.834;6.286;2022-12-11T15:40:26;99075.47;;;6.80
15144;BMP180;7672;50.834;6.286;2022-12-11T15:42:54;99072.06;;;6.78
15144;BMP180;7672;50.834;6.286;2022-12-11T15:45:24;99074.59;;;6.79
15144;BMP180;7672;50.834;6.286;2022-12-11T15:47:54;99077.97;;;6.78
15144;BMP180;7672;50.834;6.286;2022-12-11T15:50:27;99081.28;;;6.76
15144;BMP180;7672;50.834;6.286;2022-12-11T15:52:55;99072.06;;;6.74
15144;BMP180;7672;50.834;6.286;2022-12-11T15:55:25;99081.22;;;6.72
15144;BMP180;7672;50.834;6.286;2022-12-11T15:58:00;99071.16;;;6.69
15144;BMP180;7672;50.834;6.286;2022-12-11T16:00:28;99071.13;;;6.66
15144;BMP180;7672;50.834;6.286;2022-12-11T16:02:55;99068.56;;;6.60
15144;BMP180;7672;50.834;6.286;2022-12-11T16:05:24;99074.34;;;6.54
15144;BMP180;7672;50.834;6.286;2022-12-11T16:07:51;99079.34;;;6.50
15144;BMP180;7672;50.834;6.286;2022-12-11T16:10:21;99070.03;;;6.41